Time;durP1;ratioP1;P1;durP2;ratioP2;P2;SDS_P1;SDS_P2;PMS_P1;PMS_P2;Temp;Humidity;BMP_temperature;BMP_pressure;BME280_temperature;BME280_humidity;BME280_pressure;Samples;Min_cycle;Max_cycle;Signal;HPM_P1;HPM_P2
2023/07/10 00:06:47;;;;;;;5.25;2.50;;;18.30;99.90;;;;;;20508581;28;20098;-44
2023/07/10 00:16:50;;;;;;;4.68;2.42;;;18.30;99.90;;;;;;20511232;28;20099;-44
2023/07/10 00:26:51;;;;;;;4.28;2.22;;;18.20;98.20;;;;;;20515558;28;20131;-44
2023/07/10 00:36:53;;;;;;;5.10;2.40;;;18.20;99.90;;;;;;20511950;28;20043;-44
2023/07/10 00:46:59;;;;;;;6.20;2.63;;;18.20;99.90;;;;;;20511364;28;20035;-44
2023/07/10 00:57:04;;;;;;;6.65;2.88;;;18.20;99.90;;;;;;20507391;28;20073;-44
2023/07/10 01:07:10;;;;;;;3.58;2.50;;;18.20;99.90;;;;;;20508255;28;20074;-44
2023/07/10 01:17:12;;;;;;;6.03;2.75;;;18.20;99.90;;;;;;20502182;28;20046;-44
2023/07/10 01:27:13;;;;;;;10.80;3.58;;;18.20;99.90;;;;;;20509039;28;20537;-44
2023/07/10 01:37:14;;;;;;;7.70;3.20;;;18.10;99.90;;;;;;20506212;28;20046;-44
2023/07/10 01:47:16;;;;;;;7.50;3.28;;;18.10;99.90;;;;;;20504730;28;20043;-44
2023/07/10 01:57:22;;;;;;;6.07;3.30;;;18.00;99.90;;;;;;20504541;28;20047;-44
2023/07/10 02:07:43;;;;;;;7.90;3.47;;;17.80;99.90;;;;;;20504632;28;20144;-44
2023/07/10 02:17:45;;;;;;;6.40;2.97;;;17.70;99.90;;;;;;20567960;28;20490;-44
2023/07/10 02:27:47;;;;;;;7.13;3.85;;;17.60;99.90;;;;;;20577100;28;20069;-44
2023/07/10 02:37:48;;;;;;;8.30;3.90;;;17.50;99.90;;;;;;20575660;28;20584;-44
2023/07/10 02:48:09;;;;;;;9.70;4.35;;;17.30;99.90;;;;;;20573236;28;20054;-44
2023/07/10 02:58:10;;;;;;;7.50;4.72;;;17.20;99.90;;;;;;20571753;28;20527;-44
2023/07/10 03:08:11;;;;;;;7.70;4.90;;;17.10;99.90;;;;;;20574334;28;20081;-44
2023/07/10 03:18:19;;;;;;;8.25;5.32;;;17.00;99.90;;;;;;20582548;28;20039;-44
2023/07/10 03:28:40;;;;;;;9.60;4.95;;;16.90;99.90;;;;;;20576029;28;20564;-43
2023/07/10 03:38:42;;;;;;;11.40;6.60;;;16.90;99.90;;;;;;20577260;28;20398;-44
2023/07/10 03:48:43;;;;;;;10.05;5.53;;;16.80;99.90;;;;;;20576117;28;20406;-44
2023/07/10 03:59:08;;;;;;;9.80;5.70;;;16.80;99.90;;;;;;20577223;28;20793;-44
2023/07/10 04:09:09;;;;;;;9.13;5.10;;;16.80;99.90;;;;;;20580421;28;20054;-44
2023/07/10 04:19:10;;;;;;;9.05;4.78;;;16.80;99.90;;;;;;20573786;28;20059;-44
2023/07/10 04:29:31;;;;;;;10.35;5.55;;;16.90;99.90;;;;;;20573300;28;20038;-43
2023/07/10 04:39:33;;;;;;;9.60;5.97;;;17.10;99.90;;;;;;20581348;28;20031;-44
2023/07/10 04:49:34;;;;;;;9.20;5.93;;;17.10;99.90;;;;;;20584862;28;20050;-44
2023/07/10 04:59:55;;;;;;;9.93;5.72;;;17.30;99.90;;;;;;20591488;28;20121;-44
2023/07/10 05:09:56;;;;;;;8.00;4.40;;;17.40;99.90;;;;;;20593470;28;20112;-44
2023/07/10 05:19:57;;;;;;;7.20;4.63;;;17.90;87.50;;;;;;20587276;28;20038;-44
2023/07/10 05:30:18;;;;;;;8.93;3.97;;;18.00;66.90;;;;;;20589920;28;20172;-44
2023/07/10 05:40:19;;;;;;;6.78;3.60;;;18.10;50.20;;;;;;20574927;28;20165;-44
2023/07/10 05:50:20;;;;;;;6.75;2.90;;;18.30;31.70;;;;;;20585879;28;20061;-44
2023/07/10 06:00:42;;;;;;;6.45;4.10;;;18.40;24.00;;;;;;20576570;28;20042;-44
2023/07/10 06:10:45;;;;;;;8.10;3.22;;;18.80;1.00;;;;;;20586480;28;20273;-44
2023/07/10 06:20:52;;;;;;;7.93;3.60;;;19.00;12.70;;;;;;20580676;28;20486;-44
2023/07/10 06:31:13;;;;;;;9.07;2.60;;;19.20;1.00;;;;;;20581368;28;20136;-44
2023/07/10 06:41:14;;;;;;;5.90;2.40;;;19.40;1.00;;;;;;20584848;28;20042;-44
2023/07/10 06:51:15;;;;;;;8.35;3.08;;;19.50;1.00;;;;;;20590562;28;20065;-44
2023/07/10 07:01:36;;;;;;;7.97;3.22;;;19.70;1.00;;;;;;20589322;28;20128;-44
2023/07/10 07:11:37;;;;;;;6.68;2.25;;;19.70;1.00;;;;;;20589124;28;20043;-44
2023/07/10 07:21:38;;;;;;;7.38;2.10;;;20.00;1.00;;;;;;20589164;28;20054;-44
2023/07/10 07:32:00;;;;;;;11.43;2.15;;;20.10;1.00;;;;;;20586200;28;20156;-44
2023/07/10 07:42:01;;;;;;;6.43;1.73;;;20.30;1.00;;;;;;20589760;28;20033;-44
2023/07/10 07:52:03;;;;;;;5.60;1.92;;;20.40;1.00;;;;;;20586179;28;20058;-44
2023/07/10 08:02:24;;;;;;;6.43;1.90;;;20.50;1.00;;;;;;20586243;28;20157;-45
2023/07/10 08:12:26;;;;;;;10.70;1.80;;;20.60;1.00;;;;;;20589117;28;20042;-44
2023/07/10 08:22:31;;;;;;;7.95;1.60;;;20.70;1.00;;;;;;20589004;28;20038;-44
2023/07/10 08:32:52;;;;;;;7.50;1.50;;;21.00;1.00;;;;;;20602273;28;20153;-44
2023/07/10 08:43:31;;;;;;;7.15;1.67;;;21.20;1.00;;;;;;20603633;28;20557;-44
2023/07/10 08:53:34;;;;;;;3.95;1.65;;;21.30;1.00;;;;;;20597695;28;21709;-44
2023/07/10 09:03:58;;;;;;;6.45;1.08;;;21.50;1.00;;;;;;20595599;28;20097;-44
2023/07/10 09:14:53;;;;;;;10.27;1.38;;;21.70;1.00;;;;;;20599104;28;20096;-44
2023/07/10 09:24:54;;;;;;;5.60;1.42;;;21.90;1.00;;;;;;20596337;28;20580;-44
2023/07/10 09:34:58;;;;;;;4.43;1.42;;;22.20;1.00;;;;;;20594345;28;20327;-45
2023/07/10 09:45:20;;;;;;;5.65;1.30;;;22.40;1.00;;;;;;20597114;28;20050;-45
2023/07/10 09:55:23;;;;;;;5.20;1.35;;;22.60;1.00;;;;;;20596560;28;20625;-45
2023/07/10 10:05:24;;;;;;;6.88;1.40;;;22.90;1.00;;;;;;20593625;28;20047;-45
2023/07/10 10:16:22;;;;;;;6.53;1.88;;;23.10;1.00;;;;;;20590670;28;20556;-44
2023/07/10 10:26:50;;;;;;;12.45;2.30;;;23.10;1.00;;;;;;20605701;28;20053;-45
2023/07/10 10:37:21;;;;;;;7.90;1.58;;;23.20;1.00;;;;;;20591438;28;20451;-45
2023/07/10 10:47:50;;;;;;;6.68;1.30;;;23.70;1.00;;;;;;20591030;28;20086;-45
2023/07/10 10:58:02;;;;;;;7.68;1.40;;;24.20;1.00;;;;;;20591736;28;20062;-45
2023/07/10 11:08:20;;;;;;;9.48;1.88;;;24.20;1.00;;;;;;20588320;28;20495;-45
2023/07/10 11:18:42;;;;;;;6.37;1.60;;;24.20;1.00;;;;;;20584289;28;20144;-44
2023/07/10 11:29:44;;;;;;;6.03;1.63;;;24.40;1.00;;;;;;20592325;28;20440;-45
2023/07/10 11:39:48;;;;;;;5.53;1.42;;;24.30;1.00;;;;;;20547526;28;20038;-45
2023/07/10 11:49:56;;;;;;;4.43;1.20;;;24.60;1.00;;;;;;20588137;28;20057;-45
2023/07/10 12:00:25;;;;;;;4.77;1.33;;;25.10;1.00;;;;;;20587026;28;20141;-45
2023/07/10 12:10:30;;;;;;;6.07;2.33;;;25.40;1.00;;;;;;20587200;28;20506;-45
2023/07/10 12:20:53;;;;;;;4.70;1.15;;;25.30;1.00;;;;;;20583492;28;20848;-45
2023/07/10 12:31:15;;;;;;;5.25;1.52;;;25.70;1.00;;;;;;20583957;28;20069;-45
2023/07/10 12:41:45;;;;;;;4.45;0.80;;;25.60;1.00;;;;;;20586666;28;20124;-45
2023/07/10 12:52:07;;;;;;;3.58;0.90;;;25.80;1.00;;;;;;20584779;28;20129;-45
2023/07/10 13:02:36;;;;;;;5.82;1.52;;;25.90;1.00;;;;;;20584538;28;20406;-45
2023/07/10 13:13:02;;;;;;;3.78;1.13;;;25.90;1.00;;;;;;20593856;28;20066;-45
2023/07/10 13:23:23;;;;;;;5.30;1.38;;;25.20;1.00;;;;;;20595012;28;20126;-45
2023/07/10 13:33:44;;;;;;;4.18;1.27;;;25.50;1.00;;;;;;20533175;28;20529;-45
2023/07/10 13:44:05;;;;;;;3.30;1.00;;;25.50;1.00;;;;;;20518594;28;20475;-45
2023/07/10 13:54:26;;;;;;;3.72;0.70;;;25.50;1.00;;;;;;20516875;28;20321;-45
2023/07/10 14:04:49;;;;;;;3.40;0.98;;;25.80;1.00;;;;;;20511071;28;20062;-44
2023/07/10 14:15:14;;;;;;;2.67;1.00;;;25.90;1.00;;;;;;20514878;28;20578;-45
2023/07/10 14:25:35;;;;;;;4.50;0.90;;;26.10;1.00;;;;;;20515183;28;20187;-44
2023/07/10 14:35:57;;;;;;;3.95;0.85;;;26.10;1.00;;;;;;20506267;28;20082;-45
2023/07/10 14:46:34;;;;;;;2.35;0.73;;;25.80;1.00;;;;;;20512929;28;20074;-45
2023/07/10 14:56:56;;;;;;;4.03;0.80;;;25.70;1.00;;;;;;20510416;28;20075;-45
2023/07/10 15:07:18;;;;;;;2.60;0.80;;;25.80;1.00;;;;;;20509008;28;20071;-45
2023/07/10 15:17:41;;;;;;;4.20;1.00;;;25.60;1.00;;;;;;20521617;28;20506;-45
2023/07/10 15:28:02;;;;;;;1.70;0.50;;;25.60;1.00;;;;;;20575282;28;20554;-45
2023/07/10 15:38:23;;;;;;;3.63;0.70;;;25.00;1.00;;;;;;20578489;28;20141;-45
2023/07/10 15:48:44;;;;;;;3.15;0.70;;;24.90;1.00;;;;;;20575665;28;20137;-45
2023/07/10 15:59:12;;;;;;;6.68;0.80;;;25.00;1.00;;;;;;20583646;28;20156;-45
2023/07/10 16:09:33;;;;;;;2.72;0.80;;;25.00;1.00;;;;;;20581631;28;20125;-45
2023/07/10 16:19:54;;;;;;;3.45;0.93;;;24.70;1.00;;;;;;20575370;28;20046;-45
2023/07/10 16:30:21;;;;;;;2.55;0.93;;;24.60;1.00;;;;;;20574597;28;20232;-45
2023/07/10 16:40:43;;;;;;;2.67;0.80;;;24.40;1.00;;;;;;20575932;28;20266;-45
2023/07/10 16:51:11;;;;;;;2.28;0.60;;;24.50;1.00;;;;;;20580500;28;20055;-45
2023/07/10 17:01:32;;;;;;;2.38;0.80;;;24.30;1.00;;;;;;20588151;28;20260;-44
2023/07/10 17:11:54;;;;;;;2.67;0.60;;;24.30;1.00;;;;;;20591510;28;20136;-44
2023/07/10 17:22:34;;;;;;;2.08;0.60;;;24.00;1.00;;;;;;20589435;28;20084;-45
2023/07/10 17:32:56;;;;;;;2.88;0.98;;;23.70;1.00;;;;;;20593619;28;20066;-44
2023/07/10 17:43:17;;;;;;;2.80;0.63;;;23.80;1.00;;;;;;20590845;28;20164;-44
2023/07/10 17:53:39;;;;;;;2.75;0.73;;;23.60;1.00;;;;;;20589766;28;20186;-44
2023/07/10 18:04:00;;;;;;;4.15;0.90;;;23.50;1.00;;;;;;20584536;28;20193;-44
2023/07/10 18:14:21;;;;;;;2.55;0.70;;;23.40;1.00;;;;;;20578642;28;20049;-44
2023/07/10 18:24:43;;;;;;;2.47;0.90;;;23.30;1.00;;;;;;20576956;28;20580;-44
2023/07/10 18:35:06;;;;;;;3.00;1.00;;;23.30;1.00;;;;;;20568630;28;20321;-44
2023/07/10 18:45:26;;;;;;;3.17;0.90;;;23.10;1.00;;;;;;20572163;28;20096;-45
2023/07/10 18:55:48;;;;;;;2.33;0.60;;;23.00;1.00;;;;;;20516688;28;20046;-44
2023/07/10 19:06:20;;;;;;;2.90;0.70;;;22.90;1.00;;;;;;20529424;28;20038;-44
2023/07/10 19:16:42;;;;;;;2.10;0.70;;;22.70;1.00;;;;;;20571205;28;20555;-44
2023/07/10 19:27:03;;;;;;;3.92;1.20;;;22.50;1.00;;;;;;20568485;28;20608;-44
2023/07/10 19:37:24;;;;;;;2.75;0.80;;;22.40;1.00;;;;;;20563041;28;20119;-45
2023/07/10 19:47:45;;;;;;;2.22;0.73;;;22.20;1.00;;;;;;20568266;28;20096;-44
2023/07/10 19:58:18;;;;;;;2.58;0.73;;;22.00;1.00;;;;;;20560261;28;20064;-44
2023/07/10 20:08:39;;;;;;;3.00;1.00;;;21.70;1.00;;;;;;20564917;28;20576;-44
2023/07/10 20:19:00;;;;;;;4.20;0.85;;;21.50;1.00;;;;;;20582194;28;20177;-44
2023/07/10 20:29:21;;;;;;;3.25;0.80;;;21.40;1.00;;;;;;20588149;28;20356;-44
2023/07/10 20:39:42;;;;;;;2.25;0.75;;;21.30;1.00;;;;;;20504324;28;20530;-44
2023/07/10 20:50:11;;;;;;;3.40;0.80;;;21.30;1.00;;;;;;20514814;28;20055;-44
2023/07/10 21:00:32;;;;;;;1.83;0.82;;;21.10;1.00;;;;;;20495539;28;20042;-44
2023/07/10 21:10:54;;;;;;;1.67;0.73;;;21.00;1.00;;;;;;20495676;28;20101;-44
2023/07/10 21:21:16;;;;;;;3.28;0.90;;;20.80;1.00;;;;;;20498520;28;20621;-44
2023/07/10 21:31:37;;;;;;;3.03;1.05;;;20.70;1.00;;;;;;20580485;28;20072;-44
2023/07/10 21:41:58;;;;;;;4.00;0.80;;;20.60;1.00;;;;;;20580602;28;20109;-44
2023/07/10 21:52:19;;;;;;;2.55;0.80;;;20.30;1.00;;;;;;20578489;28;20069;-44
2023/07/10 22:02:40;;;;;;;3.45;1.15;;;20.10;1.00;;;;;;20572472;28;20201;-45
2023/07/10 22:13:05;;;;;;;4.47;1.17;;;19.90;1.00;;;;;;20575395;28;20076;-44
2023/07/10 22:23:28;;;;;;;6.50;1.30;;;19.80;1.00;;;;;;20569685;28;20580;-44
2023/07/10 22:33:50;;;;;;;3.45;1.02;;;19.70;1.00;;;;;;20575701;28;20173;-44
2023/07/10 22:44:14;;;;;;;4.20;1.27;;;19.70;1.00;;;;;;20562344;28;20223;-44
2023/07/10 22:54:36;;;;;;;4.85;1.13;;;19.40;1.00;;;;;;20572808;28;20574;-44
2023/07/10 23:04:57;;;;;;;3.67;0.90;;;19.30;1.00;;;;;;20593677;28;20113;-44
2023/07/10 23:15:18;;;;;;;3.05;1.13;;;19.30;1.00;;;;;;20593633;28;20112;-44
2023/07/10 23:25:39;;;;;;;2.53;1.00;;;19.30;1.00;;;;;;20600273;28;20773;-44
2023/07/10 23:36:00;;;;;;;3.05;1.10;;;19.20;1.00;;;;;;20592563;28;20125;-44
2023/07/10 23:46:21;;;;;;;2.10;0.85;;;19.20;1.00;;;;;;20595289;28;20125;-43
2023/07/10 23:56:42;;;;;;;2.50;0.70;;;19.00;1.00;;;;;;20593680;28;20581;-44
